createdAt,value
2018-04-14T00:01:11.144Z,100.00
2018-04-14T00:03:40.247Z,100.00
2018-04-14T00:06:09.552Z,99.61
2018-04-14T00:08:38.803Z,99.73
2018-04-14T00:11:08.003Z,99.40
2018-04-14T00:13:37.077Z,99.81
2018-04-14T00:16:06.139Z,100.00
2018-04-14T00:18:35.251Z,100.00
2018-04-14T00:21:04.384Z,100.00
2018-04-14T00:23:33.344Z,99.40
2018-04-14T00:26:02.479Z,98.20
2018-04-14T00:28:31.765Z,96.47
2018-04-14T00:31:00.879Z,98.02
2018-04-14T00:33:30.125Z,99.34
2018-04-14T00:35:59.181Z,96.51
2018-04-14T00:38:28.343Z,95.93
2018-04-14T00:40:57.611Z,94.78
2018-04-14T00:43:26.687Z,94.97
2018-04-14T00:45:55.868Z,95.47
2018-04-14T00:48:25.000Z,96.11
2018-04-14T00:50:54.288Z,98.66
2018-04-14T00:53:34.587Z,99.67
2018-04-14T00:56:03.591Z,99.09
2018-04-14T00:58:32.595Z,97.48
2018-04-14T01:01:01.606Z,97.93
2018-04-14T01:03:31.543Z,98.12
2018-04-14T01:06:00.606Z,100.00
2018-04-14T01:08:30.036Z,100.00
2018-04-14T01:10:59.091Z,100.00
2018-04-14T01:13:28.324Z,99.53
2018-04-14T01:15:57.499Z,99.90
2018-04-14T01:18:26.911Z,96.17
2018-04-14T01:20:56.061Z,94.48
2018-04-14T01:23:25.188Z,97.88
2018-04-14T01:25:54.402Z,100.00
2018-04-14T01:28:23.392Z,100.00
2018-04-14T01:30:52.341Z,100.00
2018-04-14T01:33:21.336Z,100.00
2018-04-14T01:35:50.331Z,100.00
2018-04-14T01:38:19.559Z,100.00
2018-04-14T01:40:48.625Z,100.00
2018-04-14T01:43:17.755Z,100.00
2018-04-14T01:45:46.815Z,100.00
2018-04-14T01:48:16.151Z,100.00
2018-04-14T01:50:45.200Z,97.94
2018-04-14T01:53:14.141Z,99.18
2018-04-14T01:55:43.338Z,100.00
2018-04-14T01:58:12.705Z,98.05
2018-04-14T02:00:41.895Z,96.17
2018-04-14T02:03:10.992Z,99.75
2018-04-14T02:05:40.291Z,100.00
2018-04-14T02:08:09.453Z,99.83
2018-04-14T02:10:38.496Z,98.96
2018-04-14T02:13:07.608Z,98.91
2018-04-14T02:15:36.701Z,100.00
2018-04-14T02:18:05.876Z,99.84
2018-04-14T02:20:35.077Z,97.56
2018-04-14T02:23:04.045Z,96.74
2018-04-14T02:25:33.077Z,98.72
2018-04-14T02:28:02.207Z,100.00
2018-04-14T02:30:31.212Z,100.00
2018-04-14T02:33:00.477Z,100.00
2018-04-14T02:35:29.960Z,100.00
2018-04-14T02:37:59.057Z,100.00
2018-04-14T02:40:28.292Z,97.80
2018-04-14T02:42:57.428Z,96.58
2018-04-14T02:45:26.444Z,97.83
2018-04-14T02:47:55.452Z,100.00
2018-04-14T02:50:24.645Z,100.00
2018-04-14T02:52:53.753Z,99.84
2018-04-14T02:55:22.972Z,98.64
2018-04-14T02:57:52.135Z,97.61
2018-04-14T03:00:21.237Z,98.82
2018-04-14T03:02:50.320Z,100.00
2018-04-14T03:05:19.373Z,100.00
2018-04-14T03:07:48.570Z,98.57
2018-04-14T03:10:17.733Z,99.09
2018-04-14T03:12:46.673Z,100.00
2018-04-14T03:15:15.757Z,100.00
2018-04-14T03:17:44.807Z,100.00
2018-04-14T03:20:14.144Z,100.00
2018-04-14T03:22:43.188Z,100.00
2018-04-14T03:25:12.323Z,100.00
2018-04-14T03:27:41.844Z,100.00
2018-04-14T03:30:11.237Z,100.00
2018-04-14T03:32:40.299Z,100.00
2018-04-14T03:35:09.636Z,100.00
2018-04-14T03:37:38.695Z,100.00
2018-04-14T03:40:07.929Z,100.00
2018-04-14T03:42:37.184Z,100.00
2018-04-14T03:45:06.389Z,100.00
2018-04-14T03:47:35.644Z,100.00
2018-04-14T03:50:05.177Z,100.00
2018-04-14T03:52:34.451Z,100.00
2018-04-14T03:55:04.160Z,100.00
2018-04-14T03:57:33.300Z,100.00
2018-04-14T04:00:02.425Z,100.00
2018-04-14T04:02:31.492Z,100.00
2018-04-14T04:05:00.747Z,100.00
2018-04-14T04:07:29.797Z,99.67
2018-04-14T04:09:58.991Z,98.91
2018-04-14T04:12:28.114Z,96.21
2018-04-14T04:14:57.053Z,94.89
2018-04-14T04:17:26.207Z,95.14
2018-04-14T04:20:06.849Z,97.79
2018-04-14T04:22:47.172Z,98.63
2018-04-14T04:25:41.756Z,100.00
2018-04-14T04:28:10.484Z,98.31
2018-04-14T04:30:39.059Z,97.72
2018-04-14T04:33:07.688Z,96.90
2018-04-14T04:35:36.330Z,98.10
2018-04-14T04:38:04.938Z,94.32
2018-04-14T04:40:33.499Z,97.36
2018-04-14T04:43:02.148Z,98.74
2018-04-14T04:45:30.773Z,100.00
2018-04-14T04:47:59.512Z,99.29
2018-04-14T04:50:28.147Z,98.96
2018-04-14T04:52:56.941Z,96.58
2018-04-14T04:55:25.507Z,93.44
2018-04-14T04:57:54.114Z,97.59
2018-04-14T05:00:22.907Z,98.00
2018-04-14T05:02:51.524Z,94.22
2018-04-14T05:05:20.117Z,92.57
2018-04-14T05:07:48.800Z,93.22
2018-04-14T05:10:17.371Z,93.63
2018-04-14T05:12:46.016Z,95.35
2018-04-14T05:15:14.644Z,94.19
2018-04-14T05:17:43.284Z,93.69
2018-04-14T05:20:12.045Z,92.04
2018-04-14T05:22:40.717Z,92.58
2018-04-14T05:25:09.301Z,92.75
2018-04-14T05:27:38.030Z,92.73
2018-04-14T05:30:06.671Z,93.91
2018-04-14T05:32:35.314Z,93.68
2018-04-14T05:35:03.957Z,94.75
2018-04-14T05:37:32.602Z,93.67
2018-04-14T05:40:01.173Z,95.50
2018-04-14T05:42:29.819Z,97.96
2018-04-14T05:44:58.437Z,99.25
2018-04-14T05:47:27.063Z,98.76
2018-04-14T05:49:55.720Z,96.35
2018-04-14T05:52:24.385Z,94.28
2018-04-14T05:54:53.068Z,92.28
2018-04-14T05:57:21.725Z,91.32
2018-04-14T05:59:50.453Z,94.96
2018-04-14T06:02:19.066Z,96.01
2018-04-14T06:04:47.712Z,90.78
2018-04-14T06:07:16.360Z,91.44
2018-04-14T06:09:44.949Z,90.98
2018-04-14T06:12:13.530Z,92.83
2018-04-14T06:14:42.110Z,94.33
2018-04-14T06:17:10.700Z,92.15
2018-04-14T06:19:39.433Z,90.48
2018-04-14T06:22:08.142Z,92.08
2018-04-14T06:24:36.730Z,92.88
2018-04-14T06:27:05.338Z,91.32
2018-04-14T06:29:33.960Z,88.94
2018-04-14T06:32:02.610Z,91.67
2018-04-14T06:34:31.390Z,90.25
2018-04-14T06:37:00.035Z,92.37
2018-04-14T06:39:28.621Z,95.69
2018-04-14T06:41:57.247Z,93.03
2018-04-14T06:44:25.935Z,92.37
2018-04-14T06:46:54.781Z,93.16
2018-04-14T06:49:23.405Z,93.14
2018-04-14T06:51:52.021Z,90.76
2018-04-14T06:54:20.776Z,88.86
2018-04-14T06:56:49.360Z,89.87
2018-04-14T06:59:17.919Z,90.94
2018-04-14T07:01:46.657Z,94.26
2018-04-14T07:04:15.260Z,96.03
2018-04-14T07:06:43.847Z,95.53
2018-04-14T07:09:12.493Z,92.48
2018-04-14T07:11:41.124Z,88.02
2018-04-14T07:14:09.769Z,86.72
2018-04-14T07:16:38.445Z,92.51
2018-04-14T07:19:07.387Z,93.70
2018-04-14T07:21:35.908Z,94.56
2018-04-14T07:24:04.665Z,91.50
2018-04-14T07:26:33.198Z,89.44
2018-04-14T07:29:02.072Z,88.40
2018-04-14T07:31:30.735Z,89.66
2018-04-14T07:33:59.300Z,93.47
2018-04-14T07:36:27.944Z,91.07
2018-04-14T07:38:56.473Z,89.36
2018-04-14T07:41:25.070Z,89.92
2018-04-14T07:43:53.697Z,94.18
2018-04-14T07:46:22.288Z,87.59
2018-04-14T07:48:50.904Z,88.69
2018-04-14T07:51:19.635Z,87.80
2018-04-14T07:53:48.593Z,85.43
2018-04-14T07:56:17.168Z,86.76
2018-04-14T07:58:45.817Z,86.93
2018-04-14T08:01:14.449Z,86.99
2018-04-14T08:03:43.170Z,85.62
2018-04-14T08:06:11.899Z,84.86
2018-04-14T08:08:40.617Z,81.88
2018-04-14T08:11:09.295Z,84.37
2018-04-14T08:13:38.052Z,88.04
2018-04-14T08:16:06.677Z,83.72
2018-04-14T08:18:35.400Z,88.87
2018-04-14T08:21:04.079Z,86.28
2018-04-14T08:23:32.784Z,84.43
2018-04-14T08:26:01.322Z,82.82
2018-04-14T08:28:30.361Z,85.78
2018-04-14T08:30:59.145Z,84.51
2018-04-14T08:33:27.775Z,81.10
2018-04-14T08:35:56.415Z,85.30
2018-04-14T08:38:25.117Z,85.67
2018-04-14T08:40:53.792Z,86.84
2018-04-14T08:43:22.420Z,86.05
2018-04-14T08:45:51.071Z,82.40
2018-04-14T08:48:19.813Z,82.51
2018-04-14T08:50:48.560Z,80.92
2018-04-14T08:53:17.277Z,86.06
2018-04-14T08:55:45.910Z,83.66
2018-04-14T08:58:14.599Z,85.87
2018-04-14T09:00:43.223Z,83.96
2018-04-14T09:03:11.909Z,84.28
2018-04-14T09:05:40.495Z,86.03
2018-04-14T09:08:09.232Z,82.03
2018-04-14T09:10:37.877Z,86.24
2018-04-14T09:13:06.656Z,85.53
2018-04-14T09:15:35.284Z,80.77
2018-04-14T09:18:04.503Z,80.37
2018-04-14T09:20:33.672Z,78.53
2018-04-14T09:23:02.896Z,76.43
2018-04-14T09:25:31.961Z,77.65
2018-04-14T09:28:01.178Z,78.81
2018-04-14T09:30:30.333Z,80.52
2018-04-14T09:32:59.383Z,81.50
2018-04-14T09:35:28.430Z,79.09
2018-04-14T09:37:57.619Z,80.97
2018-04-14T09:40:26.722Z,82.29
2018-04-14T09:42:55.868Z,80.21
2018-04-14T09:45:25.047Z,78.42
2018-04-14T09:47:54.173Z,77.78
2018-04-14T09:50:23.263Z,78.60
2018-04-14T09:52:52.400Z,80.30
2018-04-14T09:55:21.344Z,81.27
2018-04-14T09:57:50.449Z,80.17
2018-04-14T10:00:25.417Z,78.83
2018-04-14T10:03:00.710Z,78.00
2018-04-14T10:05:29.864Z,78.88
2018-04-14T10:07:58.960Z,81.05
2018-04-14T10:10:28.128Z,82.44
2018-04-14T10:12:57.356Z,80.71
2018-04-14T10:15:26.617Z,81.89
2018-04-14T10:17:55.599Z,82.45
2018-04-14T10:20:24.743Z,82.23
2018-04-14T10:22:53.940Z,82.14
2018-04-14T10:25:23.102Z,79.36
2018-04-14T10:27:52.239Z,76.39
2018-04-14T10:30:21.397Z,80.00
2018-04-14T10:32:50.492Z,76.97
2018-04-14T10:35:19.515Z,76.46
2018-04-14T10:37:48.674Z,72.95
2018-04-14T10:40:17.681Z,76.70
2018-04-14T10:42:46.756Z,79.00
2018-04-14T10:45:15.817Z,72.08
2018-04-14T10:47:44.839Z,70.95
2018-04-14T10:50:13.841Z,74.36
2018-04-14T10:52:43.039Z,72.34
2018-04-14T10:55:12.235Z,73.88
2018-04-14T10:57:41.503Z,76.42
2018-04-14T11:00:10.531Z,76.42
2018-04-14T11:02:39.600Z,73.16
2018-04-14T11:05:08.868Z,76.07
2018-04-14T11:07:37.991Z,74.33
2018-04-14T11:10:07.129Z,77.91
2018-04-14T11:12:36.283Z,78.28
2018-04-14T11:15:05.540Z,80.40
2018-04-14T11:17:34.503Z,80.64
2018-04-14T11:20:03.686Z,76.73
2018-04-14T11:22:32.829Z,76.24
2018-04-14T11:25:01.996Z,76.84
2018-04-14T11:27:31.122Z,78.73
2018-04-14T11:30:00.234Z,77.56
2018-04-14T11:32:29.623Z,75.82
2018-04-14T11:34:58.692Z,80.42
2018-04-14T11:37:27.771Z,76.55
2018-04-14T11:39:57.008Z,77.10
2018-04-14T11:42:26.217Z,77.33
2018-04-14T11:44:55.352Z,80.75
2018-04-14T11:47:25.078Z,79.03
2018-04-14T11:49:54.179Z,83.07
2018-04-14T11:52:23.356Z,80.36
2018-04-14T11:54:52.701Z,81.07
2018-04-14T11:57:21.810Z,78.69
2018-04-14T11:59:50.800Z,81.49
2018-04-14T12:02:20.106Z,82.40
2018-04-14T12:04:49.332Z,81.83
2018-04-14T12:07:18.688Z,81.84
2018-04-14T12:09:47.812Z,81.98
2018-04-14T12:12:16.765Z,81.07
2018-04-14T12:14:45.901Z,85.48
2018-04-14T12:17:14.924Z,84.58
2018-04-14T12:19:44.193Z,83.94
2018-04-14T12:22:13.161Z,82.53
2018-04-14T12:24:42.284Z,80.67
2018-04-14T12:27:11.433Z,81.57
2018-04-14T12:29:40.867Z,82.21
2018-04-14T12:32:10.034Z,80.86
2018-04-14T12:34:39.203Z,77.80
2018-04-14T12:37:08.459Z,77.87
2018-04-14T12:39:38.048Z,76.56
2018-04-14T12:42:06.993Z,77.99
2018-04-14T12:44:36.135Z,79.98
2018-04-14T12:47:05.484Z,83.46
2018-04-14T12:49:35.092Z,78.03
2018-04-14T12:52:04.251Z,79.99
2018-04-14T12:54:33.476Z,83.07
2018-04-14T12:57:02.585Z,82.17
2018-04-14T12:59:31.626Z,79.27
2018-04-14T13:02:00.821Z,79.31
2018-04-14T13:04:30.005Z,80.12
2018-04-14T13:06:59.117Z,79.99
2018-04-14T13:09:28.370Z,79.27
2018-04-14T13:11:57.504Z,81.07
2018-04-14T13:14:26.541Z,81.69
2018-04-14T13:16:56.416Z,80.70
2018-04-14T13:19:25.409Z,80.98
2018-04-14T13:21:54.608Z,80.27
2018-04-14T13:24:23.748Z,82.63
2018-04-14T13:26:52.913Z,83.07
2018-04-14T13:29:21.907Z,80.87
2018-04-14T13:31:50.942Z,81.91
2018-04-14T13:34:20.254Z,82.51
2018-04-14T13:36:49.345Z,81.92
2018-04-14T13:39:18.494Z,82.51
2018-04-14T13:41:47.755Z,82.13
2018-04-14T13:44:16.976Z,81.56
2018-04-14T13:46:46.263Z,85.45
2018-04-14T13:49:15.461Z,84.74
2018-04-14T13:51:45.572Z,84.84
2018-04-14T13:54:14.739Z,81.24
2018-04-14T13:56:43.767Z,82.95
2018-04-14T13:59:12.828Z,82.74
2018-04-14T14:01:41.992Z,84.39
2018-04-14T14:04:11.137Z,82.11
2018-04-14T14:06:40.283Z,83.56
2018-04-14T14:09:09.497Z,85.19
2018-04-14T14:11:38.636Z,83.99
2018-04-14T14:14:08.313Z,81.81
2018-04-14T14:16:37.535Z,84.33
2018-04-14T14:19:06.597Z,83.64
2018-04-14T14:21:35.843Z,83.66
2018-04-14T14:24:04.960Z,81.36
2018-04-14T14:26:34.076Z,83.12
2018-04-14T14:29:03.285Z,85.40
2018-04-14T14:31:32.475Z,85.97
2018-04-14T14:34:01.568Z,83.68
2018-04-14T14:36:30.672Z,82.42
2018-04-14T14:39:00.497Z,84.95
2018-04-14T14:41:29.612Z,84.99
2018-04-14T14:43:58.674Z,85.60
2018-04-14T14:46:27.972Z,84.67
2018-04-14T14:48:56.967Z,85.11
2018-04-14T14:51:26.676Z,84.63
2018-04-14T14:53:55.832Z,84.58
2018-04-14T14:56:24.976Z,87.27
2018-04-14T14:58:54.220Z,82.78
2018-04-14T15:01:23.296Z,84.98
2018-04-14T15:03:52.572Z,87.61
2018-04-14T15:06:21.718Z,85.27
2018-04-14T15:08:50.917Z,87.00
2018-04-14T15:11:19.956Z,86.44
2018-04-14T15:13:49.256Z,89.74
2018-04-14T15:16:18.499Z,89.77
2018-04-14T15:18:47.565Z,89.45
2018-04-14T15:21:16.567Z,90.32
2018-04-14T15:23:45.791Z,88.16
2018-04-14T15:26:14.826Z,90.00
2018-04-14T15:28:43.808Z,89.44
2018-04-14T15:31:12.887Z,89.59
2018-04-14T15:33:42.082Z,89.74
2018-04-14T15:36:11.235Z,89.41
2018-04-14T15:38:40.572Z,87.62
2018-04-14T15:41:09.593Z,88.35
2018-04-14T15:43:38.572Z,89.93
2018-04-14T15:46:07.975Z,90.13
2018-04-14T15:48:37.011Z,89.25
2018-04-14T15:51:06.375Z,91.88
2018-04-14T15:53:35.572Z,90.42
2018-04-14T15:56:04.727Z,90.18
2018-04-14T15:58:33.728Z,90.42
2018-04-14T16:01:02.917Z,90.93
2018-04-14T16:03:32.113Z,90.89
2018-04-14T16:06:01.250Z,92.00
2018-04-14T16:08:30.395Z,92.10
2018-04-14T16:10:59.651Z,93.82
2018-04-14T16:13:28.692Z,93.32
2018-04-14T16:15:58.013Z,93.93
2018-04-14T16:18:27.350Z,94.54
2018-04-14T16:20:56.500Z,94.25
2018-04-14T16:23:25.858Z,94.50
2018-04-14T16:25:55.098Z,94.75
2018-04-14T16:28:24.188Z,95.81
2018-04-14T16:30:53.236Z,95.61
2018-04-14T16:33:22.797Z,96.08
2018-04-14T16:35:51.768Z,96.43
2018-04-14T16:38:20.776Z,96.62
2018-04-14T16:40:49.827Z,97.15
2018-04-14T16:43:19.080Z,95.85
2018-04-14T16:45:48.169Z,95.60
2018-04-14T16:48:17.365Z,95.62
2018-04-14T16:50:46.626Z,95.09
2018-04-14T16:53:15.771Z,96.02
2018-04-14T16:55:44.861Z,95.93
2018-04-14T16:58:14.101Z,95.76
2018-04-14T17:00:43.173Z,95.89
2018-04-14T17:03:12.236Z,95.87
2018-04-14T17:05:41.305Z,95.69
2018-04-14T17:08:10.340Z,94.85
2018-04-14T17:10:39.640Z,95.14
2018-04-14T17:13:08.824Z,94.51
2018-04-14T17:15:38.547Z,94.31
2018-04-14T17:18:07.748Z,94.80
2018-04-14T17:20:37.006Z,95.09
2018-04-14T17:23:06.203Z,95.68
2018-04-14T17:25:35.270Z,95.61
2018-04-14T17:28:04.540Z,95.58
2018-04-14T17:30:33.597Z,95.78
2018-04-14T17:33:02.772Z,95.19
2018-04-14T17:35:31.888Z,95.00
2018-04-14T17:38:01.017Z,94.30
2018-04-14T17:40:30.244Z,94.77
2018-04-14T17:42:59.319Z,93.81
2018-04-14T17:45:28.474Z,93.41
2018-04-14T17:47:57.529Z,94.02
2018-04-14T17:50:26.772Z,94.65
2018-04-14T17:52:55.911Z,95.53
2018-04-14T17:55:25.010Z,94.37
2018-04-14T17:57:54.251Z,94.64
2018-04-14T18:00:23.520Z,94.47
2018-04-14T18:02:52.740Z,93.46
2018-04-14T18:05:22.069Z,95.03
2018-04-14T18:07:51.244Z,93.80
2018-04-14T18:10:20.404Z,93.08
2018-04-14T18:12:49.499Z,93.23
2018-04-14T18:15:18.596Z,92.69
2018-04-14T18:17:47.592Z,92.94
2018-04-14T18:20:16.760Z,93.57
2018-04-14T18:22:45.840Z,92.76
2018-04-14T18:25:15.107Z,93.63
2018-04-14T18:27:44.394Z,93.66
2018-04-14T18:30:13.531Z,91.46
2018-04-14T18:32:42.600Z,91.72
2018-04-14T18:35:11.793Z,92.76
2018-04-14T18:37:40.960Z,90.69
2018-04-14T18:40:10.213Z,91.47
2018-04-14T18:42:39.411Z,91.73
2018-04-14T18:45:08.712Z,91.35
2018-04-14T18:47:37.764Z,90.60
2018-04-14T18:50:06.871Z,90.28
2018-04-14T18:52:36.409Z,92.96
2018-04-14T18:55:05.464Z,92.03
2018-04-14T18:57:34.622Z,93.93
2018-04-14T19:00:03.866Z,92.08
2018-04-14T19:02:33.059Z,91.90
2018-04-14T19:05:02.460Z,90.68
2018-04-14T19:07:31.821Z,90.62
2018-04-14T19:10:00.969Z,90.75
2018-04-14T19:12:30.329Z,90.61
2018-04-14T19:14:59.512Z,91.32
2018-04-14T19:17:28.694Z,91.46
2018-04-14T19:19:57.817Z,91.47
2018-04-14T19:22:26.819Z,92.18
2018-04-14T19:24:55.785Z,92.17
2018-04-14T19:27:24.788Z,91.40
2018-04-14T19:29:53.897Z,92.30
2018-04-14T19:32:22.985Z,93.04
2018-04-14T19:34:51.976Z,91.57
2018-04-14T19:37:21.032Z,91.39
2018-04-14T19:39:50.105Z,92.39
2018-04-14T19:42:19.217Z,92.13
2018-04-14T19:44:48.556Z,92.42
2018-04-14T19:47:17.803Z,92.13
2018-04-14T19:49:46.851Z,91.43
2018-04-14T19:52:16.094Z,92.64
2018-04-14T19:54:45.247Z,91.66
2018-04-14T19:57:14.397Z,89.01
2018-04-14T19:59:43.469Z,91.13
2018-04-14T20:02:12.612Z,90.77
2018-04-14T20:04:41.745Z,90.53
2018-04-14T20:07:11.022Z,90.84
2018-04-14T20:09:40.336Z,92.14
2018-04-14T20:12:09.588Z,90.21
2018-04-14T20:14:38.673Z,88.88
2018-04-14T20:17:07.861Z,89.25
2018-04-14T20:19:37.232Z,90.93
2018-04-14T20:22:06.539Z,91.57
2018-04-14T20:24:35.853Z,91.44
2018-04-14T20:27:05.257Z,92.35
2018-04-14T20:29:34.435Z,92.30
2018-04-14T20:32:03.487Z,92.94
2018-04-14T20:34:32.653Z,91.97
2018-04-14T20:37:01.981Z,91.72
2018-04-14T20:39:31.001Z,91.72
2018-04-14T20:42:00.528Z,91.88
2018-04-14T20:44:29.788Z,90.12
2018-04-14T20:46:58.936Z,90.09
2018-04-14T20:49:28.124Z,89.56
2018-04-14T20:51:57.286Z,93.41
2018-04-14T20:54:26.841Z,94.08
2018-04-14T20:56:56.019Z,90.99
2018-04-14T20:59:25.327Z,87.66
2018-04-14T21:01:54.325Z,93.89
2018-04-14T21:04:23.421Z,93.47
2018-04-14T21:06:52.571Z,91.29
2018-04-14T21:09:22.225Z,87.14
2018-04-14T21:11:51.273Z,90.51
2018-04-14T21:14:21.864Z,92.32
2018-04-14T21:16:51.055Z,92.39
2018-04-14T21:19:20.252Z,90.24
2018-04-14T21:21:49.347Z,89.40
2018-04-14T21:24:18.705Z,91.63
2018-04-14T21:26:48.020Z,88.44
2018-04-14T21:29:17.148Z,87.73
2018-04-14T21:31:46.209Z,87.60
2018-04-14T21:34:15.395Z,90.39
2018-04-14T21:36:44.535Z,91.11
2018-04-14T21:39:13.535Z,88.75
2018-04-14T21:41:42.584Z,90.25
2018-04-14T21:44:11.667Z,89.52
2018-04-14T21:46:40.716Z,90.70
2018-04-14T21:49:09.785Z,92.16
2018-04-14T21:51:38.915Z,90.08
2018-04-14T21:54:08.110Z,88.89
2018-04-14T21:56:37.260Z,87.38
2018-04-14T21:59:06.499Z,86.92
2018-04-14T22:01:35.600Z,87.99
2018-04-14T22:04:04.847Z,88.08
2018-04-14T22:06:33.766Z,85.70
2018-04-14T22:09:02.988Z,85.54
2018-04-14T22:11:32.161Z,88.21
2018-04-14T22:14:01.285Z,89.89
2018-04-14T22:16:30.220Z,90.69
2018-04-14T22:18:59.311Z,88.88
2018-04-14T22:21:28.249Z,91.28
2018-04-14T22:23:57.332Z,89.86
2018-04-14T22:26:26.473Z,89.28
2018-04-14T22:28:55.556Z,89.85
2018-04-14T22:31:24.532Z,90.90
2018-04-14T22:33:53.525Z,89.69
2018-04-14T22:36:22.694Z,90.31
2018-04-14T22:38:51.889Z,91.15
2018-04-14T22:41:20.968Z,92.74
2018-04-14T22:43:50.202Z,92.38
2018-04-14T22:46:19.491Z,92.05
2018-04-14T22:48:48.474Z,92.35
2018-04-14T22:51:17.728Z,94.47
2018-04-14T22:53:46.893Z,90.33
2018-04-14T22:56:16.081Z,89.81
2018-04-14T22:58:45.321Z,89.63
2018-04-14T23:01:14.724Z,90.59
2018-04-14T23:03:43.924Z,91.90
2018-04-14T23:06:13.168Z,91.66
2018-04-14T23:08:42.379Z,91.56
2018-04-14T23:11:11.620Z,93.35
2018-04-14T23:13:40.784Z,93.96
2018-04-14T23:16:09.981Z,93.94
2018-04-14T23:18:39.019Z,91.67
2018-04-14T23:21:08.072Z,92.42
2018-04-14T23:23:38.577Z,90.17
2018-04-14T23:26:09.209Z,89.42
2018-04-14T23:28:40.659Z,91.90
2018-04-14T23:31:11.961Z,93.39
2018-04-14T23:33:42.041Z,89.56
2018-04-14T23:36:11.079Z,90.91
2018-04-14T23:38:40.135Z,92.00
2018-04-14T23:41:09.394Z,91.41
2018-04-14T23:43:38.650Z,90.50
2018-04-14T23:46:07.888Z,92.18
2018-04-14T23:48:37.019Z,92.06
2018-04-14T23:51:06.229Z,91.70
2018-04-14T23:53:35.381Z,89.43
2018-04-14T23:56:04.684Z,89.62
2018-04-14T23:58:33.964Z,90.04
